sensor_id;sensor_type;location;lat;lon;timestamp;pressure;altitude;pressure_sealevel;temperature;humidity
25869;BME280;13688;53.154;18.136;2023-05-09T00:04:50;102231.27;;;3.66;79.66
25869;BME280;13688;53.154;18.136;2023-05-09T00:10:12;102235.84;;;3.61;79.91
25869;BME280;13688;53.154;18.136;2023-05-09T00:15:35;102234.41;;;3.48;80.24
25869;BME280;13688;53.154;18.136;2023-05-09T00:20:57;102230.84;;;3.47;80.81
25869;BME280;13688;53.154;18.136;2023-05-09T00:26:21;102228.05;;;3.53;81.49
25869;BME280;13688;53.154;18.136;2023-05-09T00:31:43;102225.57;;;3.45;81.90
25869;BME280;13688;53.154;18.136;2023-05-09T00:37:05;102222.81;;;3.50;82.49
25869;BME280;13688;53.154;18.136;2023-05-09T00:42:28;102222.08;;;3.43;83.20
25869;BME280;13688;53.154;18.136;2023-05-09T00:47:50;102226.05;;;3.26;83.68
25869;BME280;13688;53.154;18.136;2023-05-09T00:53:14;102220.37;;;3.41;84.36
25869;BME280;13688;53.154;18.136;2023-05-09T00:58:36;102215.84;;;3.44;84.99
25869;BME280;13688;53.154;18.136;2023-05-09T01:03:59;102216.23;;;3.29;85.25
25869;BME280;13688;53.154;18.136;2023-05-09T01:09:42;102211.83;;;3.28;85.58
25869;BME280;13688;53.154;18.136;2023-05-09T01:15:25;102209.96;;;3.32;85.87
25869;BME280;13688;53.154;18.136;2023-05-09T01:21:22;102201.20;;;3.28;86.12
25869;BME280;13688;53.154;18.136;2023-05-09T01:32:27;102205.86;;;3.19;86.41
25869;BME280;13688;53.154;18.136;2023-05-09T01:37:49;102207.06;;;3.04;86.37
25869;BME280;13688;53.154;18.136;2023-05-09T01:43:13;102197.59;;;2.92;86.60
25869;BME280;13688;53.154;18.136;2023-05-09T01:48:39;102204.73;;;2.90;87.06
25869;BME280;13688;53.154;18.136;2023-05-09T01:54:04;102205.69;;;2.86;87.50
25869;BME280;13688;53.154;18.136;2023-05-09T01:59:28;102197.36;;;2.63;87.65
25869;BME280;13688;53.154;18.136;2023-05-09T02:04:56;102200.36;;;2.46;87.88
25869;BME280;13688;53.154;18.136;2023-05-09T02:10:20;102199.78;;;2.30;88.29
25869;BME280;13688;53.154;18.136;2023-05-09T02:15:44;102199.99;;;2.19;88.76
25869;BME280;13688;53.154;18.136;2023-05-09T02:21:08;102190.25;;;2.20;89.35
25869;BME280;13688;53.154;18.136;2023-05-09T02:26:31;102185.81;;;2.20;89.94
25869;BME280;13688;53.154;18.136;2023-05-09T02:31:54;102188.69;;;2.10;90.42
25869;BME280;13688;53.154;18.136;2023-05-09T02:37:18;102191.51;;;2.00;90.83
25869;BME280;13688;53.154;18.136;2023-05-09T02:42:42;102196.01;;;1.97;91.34
25869;BME280;13688;53.154;18.136;2023-05-09T02:48:05;102187.04;;;2.03;92.05
25869;BME280;13688;53.154;18.136;2023-05-09T02:53:29;102190.46;;;2.09;92.82
25869;BME280;13688;53.154;18.136;2023-05-09T02:58:51;102185.26;;;2.05;93.45
25869;BME280;13688;53.154;18.136;2023-05-09T03:04:14;102188.12;;;1.92;93.90
25869;BME280;13688;53.154;18.136;2023-05-09T03:09:37;102188.92;;;1.97;94.46
25869;BME280;13688;53.154;18.136;2023-05-09T03:14:59;102190.77;;;1.92;94.95
25869;BME280;13688;53.154;18.136;2023-05-09T03:20:24;102186.47;;;1.87;95.33
25869;BME280;13688;53.154;18.136;2023-05-09T03:25:47;102190.60;;;2.01;96.03
25869;BME280;13688;53.154;18.136;2023-05-09T03:31:10;102193.25;;;2.01;96.61
25869;BME280;13688;53.154;18.136;2023-05-09T03:36:32;102193.28;;;2.00;97.06
25869;BME280;13688;53.154;18.136;2023-05-09T03:41:54;102196.67;;;2.08;97.58
25869;BME280;13688;53.154;18.136;2023-05-09T17:31:57;101436.80;;;18.48;23.28
25869;BME280;13688;53.154;18.136;2023-05-09T17:37:20;101440.86;;;17.80;24.17
25869;BME280;13688;53.154;18.136;2023-05-09T17:42:42;101436.94;;;17.92;24.35
25869;BME280;13688;53.154;18.136;2023-05-09T17:48:07;101431.22;;;17.38;24.86
25869;BME280;13688;53.154;18.136;2023-05-09T17:53:30;101431.59;;;16.47;26.02
25869;BME280;13688;53.154;18.136;2023-05-09T17:58:54;101434.17;;;15.98;27.00
25869;BME280;13688;53.154;18.136;2023-05-09T18:04:16;101436.09;;;15.56;27.73
25869;BME280;13688;53.154;18.136;2023-05-09T18:09:40;101442.97;;;15.18;28.65
25869;BME280;13688;53.154;18.136;2023-05-09T18:15:03;101439.41;;;14.86;29.47
25869;BME280;13688;53.154;18.136;2023-05-09T18:20:26;101438.42;;;14.55;30.31
25869;BME280;13688;53.154;18.136;2023-05-09T18:25:50;101438.45;;;14.32;30.81
25869;BME280;13688;53.154;18.136;2023-05-09T18:31:15;101431.86;;;14.03;31.73
25869;BME280;13688;53.154;18.136;2023-05-09T18:36:40;101432.70;;;13.70;32.61
25869;BME280;13688;53.154;18.136;2023-05-09T18:42:02;101436.75;;;13.42;33.36
25869;BME280;13688;53.154;18.136;2023-05-09T18:47:25;101445.73;;;13.18;34.04
25869;BME280;13688;53.154;18.136;2023-05-09T18:52:48;101440.72;;;12.90;34.71
25869;BME280;13688;53.154;18.136;2023-05-09T18:58:11;101446.44;;;12.74;35.41
25869;BME280;13688;53.154;18.136;2023-05-09T19:03:33;101440.58;;;12.56;35.96
25869;BME280;13688;53.154;18.136;2023-05-09T19:08:58;101437.22;;;12.29;36.72
25869;BME280;13688;53.154;18.136;2023-05-09T19:14:20;101433.84;;;12.01;37.71
25869;BME280;13688;53.154;18.136;2023-05-09T19:19:42;101433.09;;;11.87;38.68
25869;BME280;13688;53.154;18.136;2023-05-09T19:25:05;101430.51;;;11.72;39.16
25869;BME280;13688;53.154;18.136;2023-05-09T19:30:28;101437.18;;;11.67;39.47
25869;BME280;13688;53.154;18.136;2023-05-09T19:35:51;101433.73;;;11.65;39.52
25869;BME280;13688;53.154;18.136;2023-05-09T19:41:14;101436.45;;;11.39;40.45
25869;BME280;13688;53.154;18.136;2023-05-09T19:46:36;101437.05;;;11.17;41.25
25869;BME280;13688;53.154;18.136;2023-05-09T19:51:58;101430.22;;;10.86;42.23
25869;BME280;13688;53.154;18.136;2023-05-09T19:57:21;101434.71;;;10.73;43.18
25869;BME280;13688;53.154;18.136;2023-05-09T20:02:44;101429.73;;;10.67;43.16
25869;BME280;13688;53.154;18.136;2023-05-09T20:08:06;101430.05;;;10.63;42.91
25869;BME280;13688;53.154;18.136;2023-05-09T20:13:46;101432.06;;;10.59;42.72
25869;BME280;13688;53.154;18.136;2023-05-09T20:19:11;101430.77;;;10.52;43.07
25869;BME280;13688;53.154;18.136;2023-05-09T20:24:33;101433.03;;;10.58;42.75
25869;BME280;13688;53.154;18.136;2023-05-09T20:29:55;101430.05;;;10.63;42.58
25869;BME280;13688;53.154;18.136;2023-05-09T20:35:18;101430.45;;;10.56;42.51
25869;BME280;13688;53.154;18.136;2023-05-09T20:40:41;101426.14;;;10.54;42.68
25869;BME280;13688;53.154;18.136;2023-05-09T20:46:04;101420.30;;;10.47;42.87
25869;BME280;13688;53.154;18.136;2023-05-09T20:51:27;101413.70;;;10.39;43.12
25869;BME280;13688;53.154;18.136;2023-05-09T20:56:49;101421.30;;;10.32;43.37
25869;BME280;13688;53.154;18.136;2023-05-09T21:02:11;101413.55;;;10.27;43.27
25869;BME280;13688;53.154;18.136;2023-05-09T21:07:34;101416.60;;;10.36;43.28
25869;BME280;13688;53.154;18.136;2023-05-09T21:12:56;101412.84;;;10.38;43.30
25869;BME280;13688;53.154;18.136;2023-05-09T21:18:19;101414.67;;;10.38;43.33
25869;BME280;13688;53.154;18.136;2023-05-09T21:23:41;101407.96;;;10.30;43.43
25869;BME280;13688;53.154;18.136;2023-05-09T21:29:04;101416.22;;;10.13;43.97
25869;BME280;13688;53.154;18.136;2023-05-09T21:34:26;101407.41;;;10.11;44.43
25869;BME280;13688;53.154;18.136;2023-05-09T21:39:48;101403.41;;;10.04;44.52
25869;BME280;13688;53.154;18.136;2023-05-09T21:45:14;101403.80;;;9.98;45.07
25869;BME280;13688;53.154;18.136;2023-05-09T21:50:36;101413.09;;;9.92;45.38
25869;BME280;13688;53.154;18.136;2023-05-09T21:55:59;101413.52;;;9.86;46.11
25869;BME280;13688;53.154;18.136;2023-05-09T22:01:21;101414.17;;;9.90;46.41
25869;BME280;13688;53.154;18.136;2023-05-09T22:06:44;101409.17;;;9.84;46.54
25869;BME280;13688;53.154;18.136;2023-05-09T22:12:09;101412.84;;;9.68;47.11
25869;BME280;13688;53.154;18.136;2023-05-09T22:17:31;101408.91;;;9.60;47.42
25869;BME280;13688;53.154;18.136;2023-05-09T22:22:54;101410.45;;;9.50;47.74
25869;BME280;13688;53.154;18.136;2023-05-09T22:28:17;101415.42;;;9.41;47.99
25869;BME280;13688;53.154;18.136;2023-05-09T22:33:39;101409.50;;;9.36;48.14
25869;BME280;13688;53.154;18.136;2023-05-09T22:39:01;101403.83;;;9.27;48.34
25869;BME280;13688;53.154;18.136;2023-05-09T22:44:24;101403.03;;;9.25;48.48
25869;BME280;13688;53.154;18.136;2023-05-09T22:49:48;101397.20;;;9.18;48.70
25869;BME280;13688;53.154;18.136;2023-05-09T22:55:12;101400.05;;;9.15;48.92
25869;BME280;13688;53.154;18.136;2023-05-09T23:00:34;101394.02;;;9.11;48.98
25869;BME280;13688;53.154;18.136;2023-05-09T23:05:57;101404.25;;;9.05;49.28
25869;BME280;13688;53.154;18.136;2023-05-09T23:11:20;101410.27;;;8.94;49.44
25869;BME280;13688;53.154;18.136;2023-05-09T23:16:42;101406.19;;;8.73;49.92
25869;BME280;13688;53.154;18.136;2023-05-09T23:22:05;101401.04;;;8.54;50.66
25869;BME280;13688;53.154;18.136;2023-05-09T23:27:27;101383.50;;;8.32;51.42
25869;BME280;13688;53.154;18.136;2023-05-09T23:32:50;101384.98;;;8.22;51.84
25869;BME280;13688;53.154;18.136;2023-05-09T23:38:12;101380.48;;;8.23;51.77
25869;BME280;13688;53.154;18.136;2023-05-09T23:43:34;101380.12;;;8.29;51.73
25869;BME280;13688;53.154;18.136;2023-05-09T23:48:57;101379.20;;;8.30;51.55
25869;BME280;13688;53.154;18.136;2023-05-09T23:54:21;101367.52;;;8.31;51.35
25869;BME280;13688;53.154;18.136;2023-05-09T23:59:44;101369.68;;;8.24;51.29
